Time;durP1;ratioP1;P1;durP2;ratioP2;P2;SDS_P1;SDS_P2;PMS_P1;PMS_P2;Temp;Humidity;BMP_temperature;BMP_pressure;BME280_temperature;BME280_humidity;BME280_pressure;Samples;Min_cycle;Max_cycle;Signal;HPM_P1;HPM_P2
2022/11/22 00:02:12;;;;;;;;;;;23.40;66.20;;;;;;5052169;28;20052;-74
2022/11/22 00:04:39;;;;;;;;;;;23.40;63.20;;;;;;5052978;28;20583;-72
2022/11/22 00:07:05;;;;;;;;;;;23.50;62.20;;;;;;5051437;28;19924;-72
2022/11/22 00:09:32;;;;;;;;;;;23.50;64.70;;;;;;5050317;28;19920;-72
2022/11/22 00:11:59;;;;;;;;;;;23.60;63.10;;;;;;5048608;28;19920;-74
2022/11/22 00:14:26;;;;;;;;;;;23.70;64.20;;;;;;5049316;28;19923;-74
2022/11/22 00:16:53;;;;;;;;;;;23.80;64.80;;;;;;5051286;28;19927;-73
2022/11/22 00:19:20;;;;;;;;;;;23.90;63.10;;;;;;5051194;28;19921;-73
2022/11/22 00:21:46;;;;;;;;;;;24.00;63.00;;;;;;5053110;28;20344;-74
2022/11/22 00:24:13;;;;;;;;;;;24.00;63.20;;;;;;5052601;28;19924;-73
2022/11/22 00:26:40;;;;;;;;;;;23.90;63.70;;;;;;5053650;28;19966;-74
2022/11/22 00:29:06;;;;;;;;;;;23.90;61.90;;;;;;5053669;28;20019;-73
2022/11/22 00:31:33;;;;;;;;;;;24.10;62.80;;;;;;5051274;28;20335;-73
2022/11/22 00:34:00;;;;;;;;;;;24.10;63.30;;;;;;5056853;28;19916;-74
2022/11/22 00:36:26;;;;;;;;;;;24.10;61.30;;;;;;5051468;28;20233;-73
2022/11/22 00:38:53;;;;;;;;;;;24.20;62.70;;;;;;5051386;28;19921;-72
2022/11/22 00:41:20;;;;;;;;;;;24.40;63.00;;;;;;5051182;28;19943;-73
2022/11/22 00:43:46;;;;;;;;;;;24.60;63.10;;;;;;5050168;28;19952;-75
2022/11/22 00:46:13;;;;;;;;;;;24.70;61.00;;;;;;5049074;28;19920;-73
2022/11/22 00:48:40;;;;;;;;;;;24.60;60.50;;;;;;5050989;28;19926;-75
2022/11/22 00:51:06;;;;;;;;;;;24.60;59.60;;;;;;5049332;28;20007;-72
2022/11/22 00:53:33;;;;;;;;;;;24.40;61.40;;;;;;5051038;28;19913;-75
2022/11/22 00:56:00;;;;;;;;;;;24.50;60.30;;;;;;5049801;28;19916;-72
2022/11/22 00:58:26;;;;;;;;;;;24.50;61.10;;;;;;5050508;28;20371;-74
2022/11/22 01:00:53;;;;;;;;;;;24.80;61.50;;;;;;5049115;28;20456;-72
2022/11/22 01:03:19;;;;;;;;;;;24.80;61.60;;;;;;5050299;28;19916;-73
2022/11/22 01:05:46;;;;;;;;;;;24.90;61.40;;;;;;5048728;28;20424;-72
2022/11/22 01:08:13;;;;;;;;;;;25.00;60.90;;;;;;5047068;28;19966;-73
2022/11/22 01:10:39;;;;;;;;;;;25.20;61.30;;;;;;5048770;28;20015;-70
2022/11/22 01:13:06;;;;;;;;;;;25.40;61.10;;;;;;5050787;28;19916;-74
2022/11/22 01:15:33;;;;;;;;;;;25.50;64.00;;;;;;5049336;28;19912;-74
2022/11/22 01:17:59;;;;;;;;;;;25.70;61.70;;;;;;5050122;28;19927;-73
2022/11/22 01:20:26;;;;;;;;;;;25.90;61.10;;;;;;5049495;28;19917;-74
2022/11/22 01:22:53;;;;;;;;;;;25.90;64.70;;;;;;5052315;28;19920;-73
2022/11/22 01:25:20;;;;;;;;;;;26.10;61.40;;;;;;5049466;28;20026;-73
2022/11/22 01:27:50;;;;;;;;;;;26.20;62.80;;;;;;5048933;28;19955;-75
2022/11/22 01:30:17;;;;;;;;;;;26.20;60.40;;;;;;5046468;28;20023;-74
2022/11/22 01:32:44;;;;;;;;;;;26.00;60.00;;;;;;5054533;28;19990;-73
2022/11/22 01:35:10;;;;;;;;;;;26.20;61.40;;;;;;5050706;28;19916;-75
2022/11/22 01:37:37;;;;;;;;;;;26.30;61.30;;;;;;5050606;28;19920;-75
2022/11/22 01:40:04;;;;;;;;;;;26.50;60.80;;;;;;5051653;28;19943;-73
2022/11/22 01:42:45;;;;;;;;;;;26.50;62.50;;;;;;5050943;28;19974;-72
2022/11/22 01:45:30;;;;;;;;;;;26.60;60.80;;;;;;5049966;28;20394;-77
2022/11/22 01:48:13;;;;;;;;;;;26.80;63.10;;;;;;5051536;28;19916;-73
2022/11/22 01:50:42;;;;;;;;;;;26.80;59.90;;;;;;5048638;28;19928;-72
2022/11/22 01:53:11;;;;;;;;;;;27.00;60.40;;;;;;5044234;28;19997;-73
2022/11/22 01:55:39;;;;;;;;;;;27.10;61.10;;;;;;5048458;28;19920;-73
2022/11/22 01:58:06;;;;;;;;;;;27.10;58.50;;;;;;5046747;28;19978;-72
2022/11/22 02:00:33;;;;;;;;;;;27.00;61.30;;;;;;5047877;28;20661;-72
2022/11/22 02:03:01;;;;;;;;;;;27.10;59.10;;;;;;5046184;28;20014;-72
2022/11/22 02:05:30;;;;;;;;;;;27.10;61.20;;;;;;5050474;28;19944;-72
2022/11/22 02:08:09;;;;;;;;;;;27.10;61.60;;;;;;5049949;28;20355;-72
2022/11/22 02:10:37;;;;;;;;;;;27.30;62.50;;;;;;5046396;28;19928;-74
2022/11/22 02:13:05;;;;;;;;;;;27.30;57.80;;;;;;5045120;28;19920;-73
2022/11/22 02:15:32;;;;;;;;;;;27.30;61.00;;;;;;5051265;28;19923;-75
2022/11/22 02:17:58;;;;;;;;;;;27.40;61.30;;;;;;5050526;28;19920;-73
2022/11/22 02:20:25;;;;;;;;;;;27.40;59.60;;;;;;5058700;28;19920;-74
2022/11/22 02:22:52;;;;;;;;;;;27.50;61.90;;;;;;5062436;28;19920;-74
2022/11/22 02:25:19;;;;;;;;;;;27.60;61.20;;;;;;5056830;28;19921;-76
2022/11/22 02:27:45;;;;;;;;;;;27.80;61.80;;;;;;5050752;28;19920;-75
2022/11/22 02:30:12;;;;;;;;;;;27.90;61.10;;;;;;5055267;28;19943;-74
2022/11/22 02:32:39;;;;;;;;;;;27.90;58.90;;;;;;5056036;28;20046;-73
2022/11/22 02:35:18;;;;;;;;;;;28.00;63.00;;;;;;5054639;28;20601;-73
2022/11/22 02:37:46;;;;;;;;;;;27.80;57.80;;;;;;5053794;28;19921;-74
2022/11/22 02:40:14;;;;;;;;;;;27.80;60.40;;;;;;5054019;28;19960;-72
2022/11/22 02:42:46;;;;;;;;;;;27.60;59.80;;;;;;5054283;28;19920;-74
2022/11/22 02:45:13;;;;;;;;;;;27.70;59.80;;;;;;5054571;28;19931;-75
2022/11/22 02:47:40;;;;;;;;;;;27.50;57.80;;;;;;5052883;28;20473;-73
2022/11/22 02:50:07;;;;;;;;;;;27.20;60.20;;;;;;5052544;28;19934;-75
2022/11/22 02:52:33;;;;;;;;;;;27.10;58.00;;;;;;5051210;28;20653;-74
2022/11/22 02:55:00;;;;;;;;;;;26.20;58.70;;;;;;5051514;28;19912;-73
2022/11/22 02:57:28;;;;;;;;;;;26.10;58.70;;;;;;5053132;28;20547;-77
2022/11/22 02:59:55;;;;;;;;;;;26.30;59.40;;;;;;5053868;28;19953;-77
2022/11/22 03:02:21;;;;;;;;;;;26.50;60.00;;;;;;5051374;28;19920;-77
2022/11/22 03:04:48;;;;;;;;;;;26.70;59.60;;;;;;5052407;28;19926;-77
2022/11/22 03:07:16;;;;;;;;;;;26.60;57.40;;;;;;5055258;28;19920;-76
2022/11/22 03:09:43;;;;;;;;;;;26.70;60.60;;;;;;5053235;28;20046;-72
2022/11/22 03:12:09;;;;;;;;;;;26.80;60.10;;;;;;5048392;28;20007;-73
2022/11/22 03:14:36;;;;;;;;;;;26.90;59.70;;;;;;5049261;28;19920;-73
2022/11/22 03:17:02;;;;;;;;;;;26.80;58.10;;;;;;5049544;28;19930;-73
2022/11/22 03:19:29;;;;;;;;;;;26.80;61.20;;;;;;5053347;28;20539;-73
2022/11/22 03:21:56;;;;;;;;;;;27.00;61.50;;;;;;5049329;28;19920;-74
2022/11/22 03:24:24;;;;;;;;;;;27.10;58.90;;;;;;5049854;28;19916;-72
2022/11/22 03:26:51;;;;;;;;;;;27.20;62.60;;;;;;5051002;28;19924;-73
2022/11/22 03:29:18;;;;;;;;;;;27.50;60.30;;;;;;5055965;28;19920;-75
2022/11/22 03:31:45;;;;;;;;;;;27.60;60.40;;;;;;5053164;28;22189;-74
2022/11/22 03:34:12;;;;;;;;;;;27.70;59.30;;;;;;5032779;28;19916;-74
2022/11/22 03:36:39;;;;;;;;;;;27.80;61.00;;;;;;5049333;28;19928;-74
2022/11/22 03:39:05;;;;;;;;;;;27.70;59.80;;;;;;5058307;28;19921;-74
2022/11/22 03:41:32;;;;;;;;;;;27.60;61.30;;;;;;5052119;28;19977;-83
2022/11/22 03:43:59;;;;;;;;;;;27.70;60.30;;;;;;5056480;28;19917;-77
2022/11/22 03:46:25;;;;;;;;;;;27.50;60.60;;;;;;5054016;28;19916;-76
2022/11/22 03:48:52;;;;;;;;;;;27.60;61.10;;;;;;5053382;28;20084;-76
2022/11/22 03:51:18;;;;;;;;;;;27.60;62.60;;;;;;5054116;28;19966;-72
2022/11/22 03:53:45;;;;;;;;;;;27.60;61.70;;;;;;5054176;28;19919;-74
2022/11/22 03:56:12;;;;;;;;;;;27.50;60.50;;;;;;5053057;28;19920;-77
2022/11/22 03:58:38;;;;;;;;;;;27.40;60.30;;;;;;5054988;28;19985;-75
2022/11/22 04:01:05;;;;;;;;;;;27.50;60.80;;;;;;5050091;28;19920;-80
2022/11/22 04:03:32;;;;;;;;;;;27.40;59.10;;;;;;5048454;28;20394;-76
2022/11/22 04:05:58;;;;;;;;;;;26.90;58.90;;;;;;5048293;28;19921;-75
2022/11/22 04:08:25;;;;;;;;;;;26.60;60.00;;;;;;5056670;28;19955;-74
2022/11/22 04:10:52;;;;;;;;;;;26.70;62.50;;;;;;5055478;28;19932;-73
2022/11/22 04:13:19;;;;;;;;;;;26.90;62.20;;;;;;5055982;28;19966;-74
2022/11/22 04:15:46;;;;;;;;;;;27.00;59.90;;;;;;5053026;28;19927;-73
2022/11/22 04:18:13;;;;;;;;;;;26.80;60.30;;;;;;5051828;28;20508;-73
2022/11/22 04:23:25;;;;;;;;;;;26.60;60.30;;;;;;5048844;28;20385;-75
2022/11/22 04:25:53;;;;;;;;;;;26.80;60.10;;;;;;5048875;28;19917;-76
2022/11/22 04:28:21;;;;;;;;;;;26.90;61.80;;;;;;5048078;28;19913;-72
2022/11/22 04:33:33;;;;;;;;;;;26.60;61.00;;;;;;5058700;28;19965;-76
2022/11/22 04:36:00;;;;;;;;;;;26.70;62.90;;;;;;5048516;28;19921;-74
2022/11/22 04:38:26;;;;;;;;;;;26.90;61.70;;;;;;5048085;28;19920;-74
2022/11/22 04:40:53;;;;;;;;;;;27.00;62.10;;;;;;5048387;28;19912;-74
2022/11/22 04:46:09;;;;;;;;;;;27.10;61.80;;;;;;5048486;28;20575;-72
2022/11/22 04:48:35;;;;;;;;;;;27.10;61.70;;;;;;5050290;28;19921;-74
2022/11/22 04:53:47;;;;;;;;;;;27.20;61.30;;;;;;5055775;28;20588;-75
2022/11/22 04:56:14;;;;;;;;;;;27.10;62.10;;;;;;5054539;28;20114;-74
2022/11/22 04:58:41;;;;;;;;;;;26.80;61.60;;;;;;5054978;28;19923;-73
2022/11/22 05:01:07;;;;;;;;;;;26.70;61.30;;;;;;5048211;28;20104;-74
2022/11/22 05:03:34;;;;;;;;;;;26.70;61.60;;;;;;5049777;28;19917;-72
2022/11/22 05:06:01;;;;;;;;;;;26.60;59.90;;;;;;5049778;28;19916;-70
2022/11/22 05:08:28;;;;;;;;;;;26.30;61.40;;;;;;5049919;28;19916;-72
2022/11/22 05:10:59;;;;;;;;;;;26.20;61.20;;;;;;5050094;28;19928;-72
2022/11/22 05:13:36;;;;;;;;;;;26.20;60.80;;;;;;5054903;28;20303;-74
2022/11/22 05:16:03;;;;;;;;;;;26.00;61.30;;;;;;5052922;28;19966;-72
2022/11/22 05:18:30;;;;;;;;;;;25.90;62.70;;;;;;5050275;28;19912;-76
2022/11/22 05:20:58;;;;;;;;;;;26.10;63.10;;;;;;5050040;28;19925;-73
2022/11/22 05:26:10;;;;;;;;;;;26.10;61.20;;;;;;5049965;28;20464;-72
2022/11/22 05:28:38;;;;;;;;;;;25.70;62.50;;;;;;5048634;28;19920;-72
2022/11/22 05:31:12;;;;;;;;;;;25.90;62.70;;;;;;5054709;28;19935;-76
2022/11/22 05:33:40;;;;;;;;;;;25.90;61.60;;;;;;5048853;28;19921;-74
2022/11/22 05:36:07;;;;;;;;;;;25.90;62.10;;;;;;5049569;28;20331;-74
2022/11/22 05:38:34;;;;;;;;;;;25.80;62.50;;;;;;5049063;28;19944;-73
2022/11/22 05:41:04;;;;;;;;;;;25.50;60.90;;;;;;5049264;28;19924;-73
2022/11/22 05:43:31;;;;;;;;;;;25.40;61.80;;;;;;5048770;28;20321;-73
2022/11/22 05:46:11;;;;;;;;;;;25.30;63.00;;;;;;5047987;28;19916;-73
2022/11/22 05:48:39;;;;;;;;;;;25.30;62.50;;;;;;5050230;28;19927;-72
2022/11/22 05:51:06;;;;;;;;;;;25.40;63.60;;;;;;5046197;28;20023;-72
2022/11/22 05:53:33;;;;;;;;;;;25.50;62.80;;;;;;5052220;28;19916;-72
2022/11/22 05:56:06;;;;;;;;;;;25.40;63.30;;;;;;5053702;28;19920;-73
2022/11/22 05:58:33;;;;;;;;;;;25.40;63.40;;;;;;5053005;28;19924;-72
2022/11/22 06:01:04;;;;;;;;;;;25.50;63.70;;;;;;5050452;28;19912;-75
2022/11/22 06:03:31;;;;;;;;;;;25.40;62.90;;;;;;5053579;28;19920;-73
2022/11/22 06:05:58;;;;;;;;;;;25.30;63.80;;;;;;5051601;28;19982;-74
2022/11/22 06:08:24;;;;;;;;;;;25.30;63.30;;;;;;5057809;28;19916;-75
2022/11/22 06:10:51;;;;;;;;;;;25.40;63.60;;;;;;5053480;28;19920;-75
2022/11/22 06:13:18;;;;;;;;;;;25.30;62.40;;;;;;5057076;28;20734;-77
2022/11/22 06:15:44;;;;;;;;;;;25.00;62.40;;;;;;5054026;28;19920;-73
2022/11/22 06:18:11;;;;;;;;;;;25.00;62.70;;;;;;5051708;28;20626;-71
2022/11/22 06:20:38;;;;;;;;;;;24.90;63.30;;;;;;5051236;28;19975;-73
2022/11/22 06:23:04;;;;;;;;;;;24.70;63.50;;;;;;5052505;28;20047;-75
2022/11/22 06:25:32;;;;;;;;;;;24.60;63.30;;;;;;5057337;28;19960;-74
2022/11/22 06:27:58;;;;;;;;;;;24.60;64.10;;;;;;5056390;28;19928;-72
2022/11/22 06:30:25;;;;;;;;;;;24.50;63.80;;;;;;5051535;28;20378;-76
2022/11/22 06:32:52;;;;;;;;;;;24.40;63.80;;;;;;5051599;28;20018;-72
2022/11/22 06:35:18;;;;;;;;;;;24.40;64.70;;;;;;5057875;28;21324;-75
2022/11/22 06:37:45;;;;;;;;;;;24.50;65.00;;;;;;5034355;28;21857;-73
2022/11/22 06:40:12;;;;;;;;;;;24.60;64.50;;;;;;5050686;28;19939;-76
2022/11/22 06:42:38;;;;;;;;;;;24.60;64.80;;;;;;5050763;28;19919;-76
2022/11/22 06:45:05;;;;;;;;;;;24.50;64.60;;;;;;5054099;28;22419;-72
2022/11/22 06:47:33;;;;;;;;;;;24.40;64.30;;;;;;5052093;28;19916;-72
2022/11/22 06:50:00;;;;;;;;;;;24.20;64.50;;;;;;5052210;28;19940;-73
2022/11/22 06:52:28;;;;;;;;;;;24.00;65.00;;;;;;5051343;28;19966;-71
2022/11/22 06:54:54;;;;;;;;;;;23.90;65.70;;;;;;5054305;28;19962;-71
2022/11/22 06:57:21;;;;;;;;;;;23.90;65.50;;;;;;5051128;28;19927;-73
2022/11/22 06:59:48;;;;;;;;;;;23.80;64.80;;;;;;5052642;28;19943;-73
2022/11/22 07:02:15;;;;;;;;;;;23.70;65.10;;;;;;5049815;28;20434;-74
2022/11/22 07:04:41;;;;;;;;;;;23.60;65.80;;;;;;5033688;28;19952;-74
2022/11/22 07:07:08;;;;;;;;;;;23.50;66.20;;;;;;5035332;28;20004;-72
2022/11/22 07:09:37;;;;;;;;;;;23.40;66.20;;;;;;5051162;28;21284;-73
2022/11/22 07:12:03;;;;;;;;;;;23.40;66.30;;;;;;5051455;28;20039;-73
2022/11/22 07:14:30;;;;;;;;;;;23.30;65.70;;;;;;5054540;28;19916;-73
2022/11/22 07:16:57;;;;;;;;;;;23.30;66.60;;;;;;5051238;28;19973;-73
2022/11/22 07:19:24;;;;;;;;;;;23.20;65.90;;;;;;5047798;28;20633;-73
2022/11/22 07:21:50;;;;;;;;;;;23.00;66.80;;;;;;5052239;28;20015;-72
2022/11/22 07:24:17;;;;;;;;;;;23.00;67.30;;;;;;5050697;28;20370;-74
2022/11/22 07:26:44;;;;;;;;;;;22.90;67.10;;;;;;5053382;28;20002;-71
2022/11/22 07:29:10;;;;;;;;;;;22.80;67.50;;;;;;5049806;28;20275;-75
2022/11/22 07:31:37;;;;;;;;;;;22.80;67.70;;;;;;5051298;28;20521;-73
2022/11/22 07:34:04;;;;;;;;;;;22.70;67.30;;;;;;5054786;28;20428;-73
2022/11/22 07:36:31;;;;;;;;;;;22.50;67.30;;;;;;5050274;28;19927;-73
2022/11/22 07:38:57;;;;;;;;;;;22.30;67.30;;;;;;5051806;28;19916;-71
2022/11/22 07:41:24;;;;;;;;;;;22.10;67.80;;;;;;5049403;28;19999;-74
2022/11/22 07:43:51;;;;;;;;;;;22.00;68.00;;;;;;5051859;28;20019;-75
2022/11/22 07:46:18;;;;;;;;;;;21.90;68.30;;;;;;5052117;28;19916;-74
2022/11/22 07:48:45;;;;;;;;;;;21.70;67.90;;;;;;5051465;28;20562;-73
2022/11/22 07:51:11;;;;;;;;;;;21.60;68.40;;;;;;5050778;28;19928;-71
2022/11/22 07:53:38;;;;;;;;;;;21.40;68.50;;;;;;5050829;28;19916;-72
2022/11/22 07:56:05;;;;;;;;;;;21.30;68.80;;;;;;5051333;28;20366;-72
2022/11/22 07:58:32;;;;;;;;;;;21.10;69.00;;;;;;5054198;28;19948;-73
2022/11/22 08:01:10;;;;;;;;;;;21.00;69.40;;;;;;5051732;28;20015;-75
2022/11/22 08:03:37;;;;;;;;;;;20.80;69.50;;;;;;5053129;28;19938;-78
2022/11/22 08:06:05;;;;;;;;;;;20.70;70.20;;;;;;5050762;28;19920;-72
2022/11/22 08:08:32;;;;;;;;;;;20.60;70.20;;;;;;5053679;28;20522;-74
2022/11/22 08:10:58;;;;;;;;;;;20.50;70.50;;;;;;5050971;28;19980;-72
2022/11/22 08:13:25;;;;;;;;;;;20.40;71.20;;;;;;5050978;28;19966;-72
2022/11/22 08:15:52;;;;;;;;;;;20.30;71.50;;;;;;5050736;28;19917;-76
2022/11/22 08:18:18;;;;;;;;;;;20.20;71.20;;;;;;5053800;28;20530;-76
2022/11/22 08:20:45;;;;;;;;;;;20.20;71.20;;;;;;5051702;28;20007;-76
2022/11/22 08:23:12;;;;;;;;;;;20.10;71.60;;;;;;5050741;28;19978;-74
2022/11/22 08:25:39;;;;;;;;;;;20.00;71.50;;;;;;5050425;28;19999;-80
2022/11/22 08:28:05;;;;;;;;;;;19.90;72.10;;;;;;5051434;28;20029;-75
2022/11/22 08:30:32;;;;;;;;;;;19.70;72.00;;;;;;5057906;28;19928;-76
2022/11/22 08:32:58;;;;;;;;;;;19.70;72.50;;;;;;5049795;28;19947;-75
2022/11/22 08:35:25;;;;;;;;;;;19.60;72.80;;;;;;5051661;28;19916;-75
2022/11/22 08:37:54;;;;;;;;;;;19.50;72.10;;;;;;5052342;28;19978;-75
2022/11/22 08:40:21;;;;;;;;;;;19.50;72.50;;;;;;5051512;28;19931;-76
2022/11/22 08:42:48;;;;;;;;;;;19.30;72.90;;;;;;5050117;28;19916;-70
2022/11/22 08:45:15;;;;;;;;;;;19.30;72.90;;;;;;5051922;28;19948;-76
2022/11/22 08:47:41;;;;;;;;;;;19.20;73.40;;;;;;5050652;28;20366;-70
2022/11/22 08:50:09;;;;;;;;;;;19.10;73.40;;;;;;5051650;28;19970;-73
2022/11/22 08:52:35;;;;;;;;;;;19.00;73.70;;;;;;5051212;28;20373;-75
2022/11/22 08:55:02;;;;;;;;;;;18.90;73.90;;;;;;5051800;28;19913;-75
2022/11/22 08:57:28;;;;;;;;;;;18.80;74.00;;;;;;5051844;28;19927;-74
2022/11/22 08:59:55;;;;;;;;;;;18.80;74.00;;;;;;5050386;28;19920;-76
2022/11/22 09:02:22;;;;;;;;;;;18.80;74.20;;;;;;5048612;28;19923;-75
2022/11/22 09:04:48;;;;;;;;;;;18.70;74.20;;;;;;5050163;28;19920;-75
2022/11/22 09:07:15;;;;;;;;;;;18.60;74.50;;;;;;5052811;28;19917;-75
2022/11/22 09:09:41;;;;;;;;;;;18.60;74.30;;;;;;5050705;28;19929;-73
2022/11/22 09:12:08;;;;;;;;;;;18.60;74.40;;;;;;5051349;28;19956;-74
2022/11/22 09:14:35;;;;;;;;;;;18.50;75.00;;;;;;5046032;28;19923;-76
2022/11/22 09:17:02;;;;;;;;;;;18.40;75.00;;;;;;5054395;28;19924;-77
2022/11/22 09:19:28;;;;;;;;;;;18.40;75.10;;;;;;5053704;28;19920;-74
2022/11/22 09:21:55;;;;;;;;;;;18.30;75.10;;;;;;5054445;28;19981;-72
2022/11/22 09:24:22;;;;;;;;;;;18.30;75.10;;;;;;5055579;28;19916;-76
2022/11/22 09:26:48;;;;;;;;;;;18.30;75.20;;;;;;5055025;28;19920;-71
2022/11/22 09:29:15;;;;;;;;;;;18.30;75.20;;;;;;5053687;28;19920;-73
2022/11/22 09:31:42;;;;;;;;;;;18.20;75.40;;;;;;5054372;28;19916;-71
2022/11/22 09:34:08;;;;;;;;;;;18.10;75.40;;;;;;5059679;28;19920;-72
2022/11/22 09:36:35;;;;;;;;;;;18.10;75.50;;;;;;5056300;28;19928;-69
2022/11/22 09:39:01;;;;;;;;;;;18.10;75.50;;;;;;5055608;28;19913;-75
2022/11/22 09:41:46;;;;;;;;;;;18.10;75.60;;;;;;5055421;28;20324;-70
2022/11/22 09:44:16;;;;;;;;;;;18.00;75.50;;;;;;5056396;28;19925;-71
2022/11/22 09:46:54;;;;;;;;;;;18.00;75.70;;;;;;5055378;28;19963;-72
2022/11/22 09:49:24;;;;;;;;;;;18.00;76.10;;;;;;5052724;28;19927;-73
2022/11/22 09:51:55;;;;;;;;;;;17.90;76.10;;;;;;5047374;28;20031;-81
2022/11/22 09:54:27;;;;;;;;;;;17.90;76.20;;;;;;5030593;28;20117;-76
2022/11/22 09:56:58;;;;;;;;;;;17.80;76.30;;;;;;5053288;28;19920;-75
2022/11/22 09:59:27;;;;;;;;;;;17.70;76.50;;;;;;5050914;28;20004;-75
2022/11/22 10:02:06;;;;;;;;;;;17.70;76.50;;;;;;5049477;28;19980;-76
2022/11/22 10:04:33;;;;;;;;;;;17.70;76.50;;;;;;5050594;28;19952;-72
2022/11/22 10:07:07;;;;;;;;;;;17.70;76.70;;;;;;5039905;28;19917;-71
2022/11/22 10:09:53;;;;;;;;;;;17.60;77.00;;;;;;5041752;28;19924;-75
2022/11/22 10:12:40;;;;;;;;;;;17.60;77.00;;;;;;5033212;28;19927;-75
2022/11/22 10:15:13;;;;;;;;;;;17.60;77.10;;;;;;5042524;28;19973;-78
2022/11/22 10:17:56;;;;;;;;;;;17.60;77.50;;;;;;5041354;28;19931;-76
2022/11/22 10:20:27;;;;;;;;;;;17.50;77.60;;;;;;5042575;28;19978;-73
2022/11/22 10:22:54;;;;;;;;;;;17.40;77.80;;;;;;5045267;28;19920;-73
2022/11/22 10:25:23;;;;;;;;;;;17.40;77.90;;;;;;5046658;28;19947;-78
2022/11/22 10:27:53;;;;;;;;;;;17.30;78.10;;;;;;5042469;28;19990;-73
2022/11/22 10:30:20;;;;;;;;;;;17.20;78.50;;;;;;5048735;28;19946;-73
2022/11/22 10:33:03;;;;;;;;;;;17.20;78.20;;;;;;5051132;28;19932;-74
2022/11/22 10:35:30;;;;;;;;;;;17.20;78.00;;;;;;5049925;28;19913;-71
2022/11/22 10:38:15;;;;;;;;;;;17.20;78.10;;;;;;5051049;28;20039;-74
2022/11/22 10:40:41;;;;;;;;;;;17.20;78.40;;;;;;5052644;28;19927;-73
2022/11/22 10:43:23;;;;;;;;;;;17.10;78.80;;;;;;5054161;28;19920;-73
2022/11/22 10:45:55;;;;;;;;;;;17.00;78.60;;;;;;5052387;28;20066;-71
2022/11/22 10:48:28;;;;;;;;;;;17.00;79.10;;;;;;5053096;28;19920;-72
2022/11/22 10:50:57;;;;;;;;;;;16.90;79.20;;;;;;5050775;28;19932;-72
2022/11/22 10:53:30;;;;;;;;;;;16.80;80.00;;;;;;5049886;28;19928;-71
2022/11/22 10:55:57;;;;;;;;;;;16.70;80.50;;;;;;5045348;28;19931;-74
2022/11/22 10:58:41;;;;;;;;;;;16.60;80.70;;;;;;5048171;28;19920;-76
2022/11/22 11:01:17;;;;;;;;;;;16.50;81.10;;;;;;5046665;28;19952;-74
2022/11/22 11:03:45;;;;;;;;;;;16.30;81.80;;;;;;5047418;28;19927;-73
2022/11/22 11:06:33;;;;;;;;;;;16.30;81.80;;;;;;5049275;28;19962;-74
2022/11/22 11:09:06;;;;;;;;;;;16.20;82.10;;;;;;5051248;28;19931;-76
2022/11/22 11:11:33;;;;;;;;;;;16.20;82.30;;;;;;5046104;28;19916;-73
2022/11/22 11:14:23;;;;;;;;;;;16.20;82.50;;;;;;5049263;28;19920;-69
2022/11/22 11:16:50;;;;;;;;;;;16.20;82.10;;;;;;5048431;28;19919;-74
2022/11/22 11:19:18;;;;;;;;;;;16.30;81.50;;;;;;5049814;28;19935;-73
2022/11/22 11:21:45;;;;;;;;;;;16.30;81.70;;;;;;5048760;28;19912;-70
2022/11/22 11:24:15;;;;;;;;;;;16.30;81.80;;;;;;5050784;28;19924;-76
2022/11/22 11:26:43;;;;;;;;;;;16.30;81.70;;;;;;5029300;28;19920;-75
2022/11/22 11:29:16;;;;;;;;;;;16.30;81.70;;;;;;5050598;28;20247;-73
2022/11/22 11:31:50;;;;;;;;;;;16.30;81.80;;;;;;5048964;28;19920;-71
2022/11/22 11:34:27;;;;;;;;;;;16.30;81.70;;;;;;5050466;28;20043;-72
2022/11/22 11:36:56;;;;;;;;;;;16.30;82.10;;;;;;5052624;28;20329;-70
2022/11/22 11:39:27;;;;;;;;;;;16.20;82.10;;;;;;5064877;28;19958;-70
2022/11/22 11:41:54;;;;;;;;;;;16.20;82.00;;;;;;5062678;28;20190;-72
2022/11/22 11:44:30;;;;;;;;;;;16.20;82.80;;;;;;5063086;28;19912;-70
2022/11/22 11:47:00;;;;;;;;;;;16.10;83.00;;;;;;5064960;28;20279;-72
2022/11/22 11:49:30;;;;;;;;;;;16.00;83.10;;;;;;5064629;28;19920;-69
2022/11/22 11:51:59;;;;;;;;;;;15.90;83.70;;;;;;5064178;28;19928;-74
2022/11/22 11:54:32;;;;;;;;;;;15.90;83.80;;;;;;5060872;28;19919;-71
2022/11/22 11:57:04;;;;;;;;;;;15.80;84.60;;;;;;5061370;28;20003;-75
2022/11/22 11:59:37;;;;;;;;;;;15.70;84.00;;;;;;5058084;28;20011;-70
2022/11/22 12:02:09;;;;;;;;;;;15.70;84.20;;;;;;5058580;28;19922;-68
2022/11/22 12:04:45;;;;;;;;;;;15.70;84.20;;;;;;5058311;28;19920;-75
2022/11/22 12:07:34;;;;;;;;;;;15.60;84.20;;;;;;5062957;28;19966;-71
2022/11/22 12:10:03;;;;;;;;;;;15.50;84.50;;;;;;5056726;28;19925;-72
2022/11/22 12:12:33;;;;;;;;;;;15.40;85.10;;;;;;5064134;28;19917;-74
2022/11/22 12:15:05;;;;;;;;;;;15.30;85.50;;;;;;5064003;28;19922;-75
2022/11/22 12:17:35;;;;;;;;;;;15.30;85.30;;;;;;5065202;28;19942;-75
2022/11/22 12:20:11;;;;;;;;;;;15.40;84.80;;;;;;5063259;28;21338;-72
2022/11/22 12:22:50;;;;;;;;;;;15.40;85.60;;;;;;5066342;28;19919;-72
2022/11/22 12:25:36;;;;;;;;;;;15.40;85.20;;;;;;5059632;28;19958;-73
2022/11/22 12:28:22;;;;;;;;;;;15.40;85.40;;;;;;5065016;28;19913;-73
2022/11/22 12:31:09;;;;;;;;;;;15.30;85.60;;;;;;5057339;28;19927;-74
2022/11/22 12:33:37;;;;;;;;;;;15.30;85.70;;;;;;5056985;28;20480;-74
2022/11/22 12:36:05;;;;;;;;;;;15.30;85.60;;;;;;5058595;28;19916;-74
2022/11/22 12:38:35;;;;;;;;;;;15.20;86.00;;;;;;5058909;28;19920;-72
2022/11/22 12:41:05;;;;;;;;;;;15.20;86.20;;;;;;5062605;28;19997;-76
2022/11/22 12:43:43;;;;;;;;;;;15.10;86.40;;;;;;5059477;28;19974;-73
2022/11/22 12:46:48;;;;;;;;;;;15.00;87.60;;;;;;5065887;28;19916;-73
2022/11/22 12:49:26;;;;;;;;;;;15.00;87.60;;;;;;5023384;28;19971;-73
2022/11/22 12:52:12;;;;;;;;;;;15.00;88.00;;;;;;5020849;28;19913;-74
2022/11/22 12:54:43;;;;;;;;;;;14.90;87.80;;;;;;5033742;28;19917;-74
2022/11/22 12:57:13;;;;;;;;;;;14.80;88.50;;;;;;5061075;28;19916;-75
2022/11/22 13:00:04;;;;;;;;;;;14.80;88.40;;;;;;5064034;28;20048;-75
2022/11/22 13:02:34;;;;;;;;;;;14.80;88.20;;;;;;5063690;28;19920;-74
2022/11/22 13:05:00;;;;;;;;;;;14.70;88.00;;;;;;5057384;28;19921;-71
2022/11/22 13:07:36;;;;;;;;;;;14.70;88.50;;;;;;5061788;28;19916;-76
2022/11/22 13:10:19;;;;;;;;;;;14.70;88.30;;;;;;5065101;28;20451;-75
2022/11/22 13:12:46;;;;;;;;;;;14.60;88.70;;;;;;5061884;28;20354;-75
2022/11/22 13:15:16;;;;;;;;;;;14.50;89.40;;;;;;5061346;28;20259;-73
2022/11/22 13:17:43;;;;;;;;;;;14.40;90.10;;;;;;5063424;28;19916;-73
2022/11/22 13:20:20;;;;;;;;;;;14.40;90.60;;;;;;5064360;28;19938;-71
2022/11/22 13:22:48;;;;;;;;;;;14.30;91.00;;;;;;5057449;28;20413;-70
2022/11/22 13:25:37;;;;;;;;;;;14.30;91.00;;;;;;5064767;28;19919;-76
2022/11/22 13:28:08;;;;;;;;;;;14.20;90.90;;;;;;5059749;28;19962;-73
2022/11/22 13:30:38;;;;;;;;;;;14.10;91.10;;;;;;5062645;28;20281;-74
2022/11/22 13:33:05;;;;;;;;;;;14.00;91.20;;;;;;5059824;28;19940;-76
2022/11/22 13:35:36;;;;;;;;;;;13.90;91.60;;;;;;5064191;28;20273;-76
2022/11/22 13:38:02;;;;;;;;;;;13.90;91.80;;;;;;5065326;28;19916;-74
2022/11/22 13:40:52;;;;;;;;;;;13.90;91.70;;;;;;5058540;28;19927;-73
2022/11/22 13:43:19;;;;;;;;;;;13.90;91.50;;;;;;5060063;28;19960;-75
2022/11/22 13:46:05;;;;;;;;;;;13.80;91.50;;;;;;5067040;28;19986;-77
2022/11/22 13:48:40;;;;;;;;;;;13.80;91.80;;;;;;5063327;28;20011;-75
2022/11/22 13:51:08;;;;;;;;;;;13.70;92.20;;;;;;5063047;28;19924;-73
2022/11/22 13:53:36;;;;;;;;;;;13.70;92.70;;;;;;5061050;28;19916;-75
2022/11/22 13:56:12;;;;;;;;;;;13.70;93.00;;;;;;5064417;28;19919;-77
2022/11/22 13:58:39;;;;;;;;;;;13.60;93.00;;;;;;5063295;28;19913;-73
2022/11/22 14:01:25;;;;;;;;;;;13.50;93.20;;;;;;5063940;28;19916;-76
2022/11/22 14:03:52;;;;;;;;;;;13.50;93.50;;;;;;5061666;28;19928;-75
2022/11/22 14:06:23;;;;;;;;;;;13.40;93.60;;;;;;5065276;28;19921;-75
2022/11/22 14:09:09;;;;;;;;;;;13.30;93.40;;;;;;5063387;28;19912;-75
2022/11/22 14:11:51;;;;;;;;;;;13.30;93.60;;;;;;5064298;28;19917;-74
2022/11/22 14:14:41;;;;;;;;;;;13.20;94.00;;;;;;5062420;28;19917;-74
2022/11/22 14:17:31;;;;;;;;;;;13.20;94.20;;;;;;5058004;28;20371;-74
2022/11/22 14:20:20;;;;;;;;;;;13.20;94.20;;;;;;5058994;28;20409;-74
2022/11/22 14:22:49;;;;;;;;;;;13.10;94.30;;;;;;5060486;28;19927;-75
2022/11/22 14:25:34;;;;;;;;;;;13.00;94.60;;;;;;5062987;28;19923;-70
2022/11/22 14:28:04;;;;;;;;;;;13.00;94.70;;;;;;5067011;28;20282;-73
2022/11/22 14:31:05;;;;;;;;;;;13.00;95.00;;;;;;5063810;28;19985;-77
2022/11/22 14:33:32;;;;;;;;;;;13.00;94.90;;;;;;4984634;28;20333;-76
2022/11/22 14:36:11;;;;;;;;;;;12.90;94.70;;;;;;5047038;28;20038;-74
2022/11/22 14:38:38;;;;;;;;;;;12.90;94.80;;;;;;5061944;28;19916;-75
2022/11/22 14:41:23;;;;;;;;;;;12.90;94.90;;;;;;5063842;28;19920;-75
2022/11/22 14:43:52;;;;;;;;;;;12.90;95.40;;;;;;5060318;28;19917;-73
2022/11/22 14:46:20;;;;;;;;;;;12.80;95.30;;;;;;5057760;28;20550;-72